Time;durP1;ratioP1;P1;durP2;ratioP2;P2;SDS_P1;SDS_P2;PMS_P1;PMS_P2;Temp;Humidity;BMP_temperature;BMP_pressure;BME280_temperature;BME280_humidity;BME280_pressure;Samples;Min_cycle;Max_cycle;Signal;HPM_P1;HPM_P2
2023/07/19 00:01:05;;;;;;;17.48;6.72;;;;;;;22.55;71.45;98734.56;5121437;27;20071;-95
2023/07/19 00:03:31;;;;;;;14.57;6.43;;;;;;;22.40;72.32;98716.75;5121080;27;20046;-95
2023/07/19 00:06:00;;;;;;;17.30;6.75;;;;;;;22.39;71.92;98715.03;5121207;27;20039;-94
2023/07/19 00:08:25;;;;;;;18.55;6.80;;;;;;;22.42;72.10;98727.47;5120685;27;20051;-95
2023/07/19 00:10:51;;;;;;;19.00;6.55;;;;;;;22.46;71.45;98737.97;5119548;27;20096;-94
2023/07/19 00:13:17;;;;;;;19.45;6.95;;;;;;;22.26;73.01;98739.47;5121144;27;20047;-95
2023/07/19 00:15:43;;;;;;;13.50;6.78;;;;;;;22.20;74.22;98731.78;5119651;27;20075;-95
2023/07/19 00:18:09;;;;;;;14.50;6.57;;;;;;;22.27;73.42;98738.50;5121008;27;20511;-93
2023/07/19 00:20:35;;;;;;;19.65;7.10;;;;;;;22.25;73.47;98720.63;5120934;27;20067;-96
2023/07/19 00:23:02;;;;;;;15.55;7.50;;;;;;;22.15;73.56;98709.59;5121215;27;20043;-94
2023/07/19 00:25:28;;;;;;;18.63;7.00;;;;;;;22.18;74.68;98724.75;5120722;27;20066;-95
2023/07/19 00:27:54;;;;;;;18.25;7.35;;;;;;;22.17;75.17;98732.03;5121070;27;20043;-95
2023/07/19 00:30:20;;;;;;;17.42;6.78;;;;;;;22.09;76.27;98720.91;5120934;27;20060;-95
2023/07/19 00:32:46;;;;;;;15.38;8.70;;;;;;;21.94;75.37;98722.91;5120914;27;20039;-94
2023/07/19 00:35:12;;;;;;;16.15;7.00;;;;;;;21.87;75.28;98700.84;5120919;27;20142;-96
2023/07/19 00:37:38;;;;;;;19.55;7.43;;;;;;;21.89;75.98;98714.28;5120734;27;20043;-96
2023/07/19 00:40:06;;;;;;;18.67;7.95;;;;;;;21.92;75.31;98714.91;5120830;28;20087;-94
2023/07/19 00:42:32;;;;;;;18.70;7.18;;;;;;;21.88;76.27;98713.41;5120741;28;20047;-94
2023/07/19 00:44:58;;;;;;;20.52;7.55;;;;;;;21.87;76.29;98717.09;5117138;28;20036;-96
2023/07/19 00:47:24;;;;;;;18.90;8.05;;;;;;;21.86;74.67;98711.78;5116836;28;20078;-95
2023/07/19 00:49:50;;;;;;;14.98;7.80;;;;;;;21.84;74.56;98706.50;5115177;28;20493;-95
2023/07/19 00:52:17;;;;;;;17.65;7.68;;;;;;;21.58;73.87;98678.66;5116383;28;20048;-94
2023/07/19 00:54:43;;;;;;;16.10;6.88;;;;;;;21.56;73.43;98680.63;5116853;28;20043;-95
2023/07/19 00:57:10;;;;;;;17.52;6.50;;;;;;;21.63;74.24;98700.81;5116450;28;20050;-93
2023/07/19 00:59:37;;;;;;;16.08;6.35;;;;;;;21.69;73.80;98689.53;5116605;28;20054;-94
2023/07/19 01:02:03;;;;;;;17.80;6.25;;;;;;;21.78;73.17;98703.38;5116474;28;20380;-94
2023/07/19 01:04:30;;;;;;;16.98;6.80;;;;;;;21.72;72.83;98685.75;5115904;28;20481;-94
2023/07/19 01:06:56;;;;;;;19.30;7.28;;;;;;;21.74;72.81;98679.22;5115433;28;20508;-94
2023/07/19 01:09:23;;;;;;;15.43;6.63;;;;;;;21.79;73.36;98691.56;5115795;28;20043;-94
2023/07/19 01:11:49;;;;;;;20.95;8.38;;;;;;;21.63;75.30;98668.34;5116168;28;20044;-94
2023/07/19 01:14:17;;;;;;;19.27;7.47;;;;;;;21.64;75.13;98675.50;5116245;28;20185;-94
2023/07/19 01:16:43;;;;;;;16.92;6.78;;;;;;;21.63;75.10;98678.31;5116558;28;20523;-94
2023/07/19 01:19:10;;;;;;;18.27;7.10;;;;;;;21.53;75.52;98670.88;5116217;28;20101;-95
2023/07/19 01:21:36;;;;;;;14.57;6.85;;;;;;;21.57;75.09;98676.06;5118240;28;20043;-94
2023/07/19 01:24:07;;;;;;;17.90;7.10;;;;;;;21.54;75.60;98677.16;5121010;28;20041;-94
2023/07/19 01:26:33;;;;;;;19.08;7.80;;;;;;;21.36;76.52;98667.63;5120679;28;20047;-95
2023/07/19 01:29:00;;;;;;;16.25;8.02;;;;;;;21.45;76.77;98669.72;5119695;28;20043;-95
2023/07/19 01:31:27;;;;;;;17.17;7.53;;;;;;;21.40;77.86;98686.22;5119112;28;20369;-94
2023/07/19 01:33:53;;;;;;;15.90;8.00;;;;;;;21.38;77.20;98668.38;5119739;28;20146;-94
2023/07/19 01:36:19;;;;;;;14.60;7.05;;;;;;;21.36;76.01;98656.81;5120645;28;20074;-95
2023/07/19 01:38:45;;;;;;;18.92;7.32;;;;;;;21.40;77.29;98669.13;5120317;28;20032;-94
2023/07/19 01:41:12;;;;;;;18.35;7.75;;;;;;;21.38;77.75;98650.31;5120911;28;20506;-94
2023/07/19 01:43:39;;;;;;;16.63;7.75;;;;;;;21.43;77.25;98652.75;5120563;28;20062;-94
2023/07/19 01:46:06;;;;;;;16.15;7.55;;;;;;;21.44;78.58;98646.34;5120073;28;20484;-94
2023/07/19 01:48:33;;;;;;;21.15;8.07;;;;;;;21.50;78.92;98660.28;5120553;28;20461;-94
2023/07/19 01:50:59;;;;;;;20.25;7.85;;;;;;;21.36;80.04;98636.06;5120537;28;20048;-94
2023/07/19 01:53:25;;;;;;;20.13;8.13;;;;;;;21.34;80.13;98638.88;5120210;28;20512;-94
2023/07/19 01:55:55;;;;;;;20.00;8.40;;;;;;;21.41;80.96;98663.66;5120426;28;20082;-94
2023/07/19 01:58:22;;;;;;;20.23;7.90;;;;;;;21.24;81.10;98645.06;5120229;28;20047;-94
2023/07/19 02:00:48;;;;;;;18.42;8.30;;;;;;;21.28;81.63;98651.97;5119933;28;20044;-93
2023/07/19 02:03:14;;;;;;;20.50;7.88;;;;;;;21.19;82.11;98633.69;5119953;28;20143;-95
2023/07/19 02:05:40;;;;;;;19.73;7.57;;;;;;;21.31;82.98;98649.03;5120058;28;20043;-94
2023/07/19 02:08:06;;;;;;;22.67;8.90;;;;;;;21.38;82.14;98655.72;5118422;28;20031;-94
2023/07/19 02:10:32;;;;;;;19.75;7.78;;;;;;;21.32;82.73;98651.66;5119750;28;20130;-93
2023/07/19 02:12:58;;;;;;;17.65;8.57;;;;;;;21.24;83.30;98653.19;5118846;28;20051;-94
2023/07/19 02:15:25;;;;;;;20.50;8.98;;;;;;;21.08;83.69;98631.81;5118778;28;20047;-94
2023/07/19 02:17:59;;;;;;;23.70;9.43;;;;;;;21.10;83.81;98651.44;5119799;28;20506;-93
2023/07/19 02:20:25;;;;;;;20.45;8.82;;;;;;;21.04;84.61;98652.78;5132492;27;20071;-96
2023/07/19 02:23:10;;;;;;;21.00;7.93;;;;;;;21.03;84.57;98653.72;5143905;27;20503;-94
2023/07/19 02:25:47;;;;;;;22.48;8.70;;;;;;;20.80;87.31;98635.63;5143523;27;20049;-94
2023/07/19 02:28:15;;;;;;;;;;;;;;;20.90;86.67;98663.69;5144100;27;20045;-94
2023/07/19 02:30:46;;;;;;;23.63;8.45;;;;;;;20.63;87.35;98615.19;5143617;27;19968;-95
2023/07/19 02:33:14;;;;;;;20.52;8.68;;;;;;;20.68;86.73;98637.34;5141728;27;20121;-94
2023/07/19 02:35:41;;;;;;;23.48;8.65;;;;;;;20.84;86.44;98658.72;5143983;27;20039;-96
2023/07/19 02:38:13;;;;;;;25.45;9.13;;;;;;;20.71;85.67;98626.34;5143858;27;20103;-94
2023/07/19 02:40:39;;;;;;;23.92;8.65;;;;;;;20.63;85.92;98623.31;5143984;27;20039;-94
2023/07/19 02:43:05;;;;;;;22.25;8.35;;;;;;;20.79;85.79;98642.00;5142819;27;20107;-95
2023/07/19 02:45:33;;;;;;;27.48;8.85;;;;;;;20.74;85.44;98641.47;5143479;27;20406;-93
2023/07/19 02:48:01;;;;;;;22.50;8.63;;;;;;;20.65;85.84;98622.22;5143476;27;20049;-95
2023/07/19 02:50:28;;;;;;;21.17;8.55;;;;;;;20.68;86.47;98632.78;5143513;27;20042;-95
2023/07/19 02:52:54;;;;;;;18.55;8.82;;;;;;;20.72;86.39;98646.97;5143753;27;20129;-96
2023/07/19 03:01:59;;;;;;;24.55;8.88;;;;;;;20.70;85.28;98638.09;5060649;28;20046;-95
2023/07/19 03:04:35;;;;;;;25.65;9.10;;;;;;;20.65;85.81;98641.13;5061171;28;20040;-95
2023/07/19 03:07:01;;;;;;;25.63;8.52;;;;;;;20.55;86.71;98634.59;5061024;28;20549;-96
2023/07/19 03:09:27;;;;;;;25.40;9.40;;;;;;;20.63;86.62;98645.78;5060994;28;20041;-95
2023/07/19 03:11:53;;;;;;;24.88;9.57;;;;;;;20.42;87.32;98618.38;5060629;28;20055;-96
2023/07/19 03:14:20;;;;;;;25.33;8.52;;;;;;;20.40;88.01;98624.88;5060767;28;20102;-94
2023/07/19 03:16:46;;;;;;;20.67;8.85;;;;;;;20.37;88.24;98627.81;5060609;28;20440;-96
2023/07/19 03:19:11;;;;;;;22.17;9.05;;;;;;;20.43;89.25;98643.59;5060713;28;20037;-95
2023/07/19 03:21:39;;;;;;;25.50;8.98;;;;;;;20.42;90.68;98649.94;5060534;28;20162;-95
2023/07/19 03:24:05;;;;;;;23.90;9.98;;;;;;;20.43;90.53;98635.47;5060200;28;20056;-95
2023/07/19 03:26:31;;;;;;;21.45;9.23;;;;;;;20.45;91.75;98647.00;5058992;28;20594;-95
2023/07/19 03:28:57;;;;;;;22.90;8.48;;;;;;;20.40;93.59;98654.59;5060608;28;20073;-95
2023/07/19 03:31:22;;;;;;;23.85;9.30;;;;;;;20.38;94.17;98648.41;5060428;28;20044;-93
2023/07/19 03:33:48;;;;;;;22.60;9.23;;;;;;;20.23;94.58;98624.22;5060392;28;20024;-95
2023/07/19 03:36:14;;;;;;;21.15;9.32;;;;;;;20.39;94.84;98658.28;5137102;27;20035;-95
2023/07/19 03:38:41;;;;;;;25.95;9.90;;;;;;;20.33;96.10;98646.03;5142127;27;20050;-95
2023/07/19 03:41:08;;;;;;;21.23;9.32;;;;;;;20.29;97.80;98645.38;5140632;27;20038;-95
2023/07/19 03:43:34;;;;;;;26.48;9.43;;;;;;;20.25;97.78;98637.59;5137132;27;20142;-95
2023/07/19 03:46:00;;;;;;;24.00;9.23;;;;;;;20.30;98.44;98638.16;5120663;27;20066;-96
2023/07/19 03:48:26;;;;;;;28.45;10.32;;;;;;;20.30;98.81;98639.03;5121556;27;20039;-96
2023/07/19 03:50:56;;;;;;;30.00;10.40;;;;;;;20.21;100.00;98634.25;5121520;27;20054;-95
2023/07/19 03:53:22;;;;;;;26.10;9.43;;;;;;;20.13;100.00;98624.97;5121983;27;20043;-95
2023/07/19 03:55:54;;;;;;;20.27;9.05;;;;;;;20.27;100.00;98647.31;5119705;27;20147;-95
2023/07/19 03:58:31;;;;;;;31.17;9.80;;;;;;;20.21;100.00;98636.06;5101226;28;20050;-94
2023/07/19 04:01:07;;;;;;;28.60;10.32;;;;;;;20.26;100.00;98648.31;5100926;28;20077;-94
2023/07/19 04:03:36;;;;;;;27.67;10.20;;;;;;;20.14;100.00;98623.97;5101290;28;20027;-95
2023/07/19 04:06:29;;;;;;;38.92;12.68;;;;;;;20.35;100.00;98660.31;5100273;28;20043;-94
2023/07/19 04:09:00;;;;;;;25.58;9.70;;;;;;;20.32;100.00;98638.94;5091502;28;20052;-95
2023/07/19 04:11:28;;;;;;;24.33;10.23;;;;;;;20.31;100.00;98632.63;5100819;28;20038;-95
2023/07/19 04:13:55;;;;;;;23.42;9.90;;;;;;;20.45;100.00;98649.72;5101330;28;20399;-95
2023/07/19 04:16:21;;;;;;;26.88;10.30;;;;;;;20.45;100.00;98644.31;5100476;28;20047;-95
2023/07/19 04:18:47;;;;;;;22.63;9.98;;;;;;;20.46;100.00;98640.66;5099143;28;20039;-95
2023/07/19 04:21:33;;;;;;;27.95;10.50;;;;;;;20.41;100.00;98627.47;5100549;28;20048;-94
2023/07/19 04:23:59;;;;;;;28.38;12.13;;;;;;;20.64;100.00;98663.69;5100992;28;20380;-95
2023/07/19 04:26:25;;;;;;;29.85;9.88;;;;;;;20.70;100.00;98662.41;5100481;28;20131;-94
2023/07/19 04:29:02;;;;;;;30.13;10.43;;;;;;;20.59;100.00;98633.44;5100590;28;20553;-95
2023/07/19 04:31:38;;;;;;;25.30;9.98;;;;;;;20.80;100.00;98659.94;5100407;28;20077;-95
2023/07/19 04:34:10;;;;;;;30.02;10.50;;;;;;;20.74;100.00;98633.34;5100267;28;20048;-94
2023/07/19 04:36:42;;;;;;;29.67;10.85;;;;;;;20.97;100.00;98669.53;5101162;28;20134;-96
2023/07/19 04:39:12;;;;;;;28.20;11.75;;;;;;;20.89;99.10;98648.47;5101116;28;20036;-94
2023/07/19 04:41:44;;;;;;;27.02;10.52;;;;;;;20.88;97.34;98633.22;5100849;28;20050;-94
2023/07/19 04:44:23;;;;;;;26.83;10.57;;;;;;;21.08;98.00;98667.81;5110359;27;20047;-95
2023/07/19 04:47:23;;;;;;;;;;;;;;;;;;;;;
2023/07/19 04:49:50;;;;;;;26.67;9.95;;;;;;;20.98;100.00;98655.91;5117368;28;20039;-95
2023/07/19 04:52:18;;;;;;;39.88;11.70;;;;;;;21.01;100.00;98663.78;5120820;28;20042;-94
2023/07/19 04:54:48;;;;;;;33.97;11.73;;;;;;;21.12;100.00;98657.63;5120343;28;20404;-94
2023/07/19 04:57:20;;;;;;;30.23;11.27;;;;;;;21.17;100.00;98641.94;5120590;28;20400;-95
2023/07/19 04:59:48;;;;;;;28.42;11.20;;;;;;;21.39;100.00;98681.81;5120605;28;20046;-95
2023/07/19 05:02:17;;;;;;;27.48;9.98;;;;;;;21.27;100.00;98637.56;5120624;28;20039;-94
2023/07/19 05:04:48;;;;;;;22.90;10.30;;;;;;;21.43;100.00;98636.50;5120979;28;20099;-94
2023/07/19 05:07:16;;;;;;;27.13;10.73;;;;;;;21.51;99.43;98634.06;5121679;28;20038;-95
2023/07/19 05:09:45;;;;;;;24.73;10.52;;;;;;;21.75;97.58;98639.50;5120774;28;20047;-96
2023/07/19 05:12:14;;;;;;;31.05;11.57;;;;;;;22.30;93.08;98640.75;5120776;28;20138;-95
2023/07/19 05:14:42;;;;;;;28.35;10.75;;;;;;;22.87;92.76;98648.97;5119810;28;20036;-96
2023/07/19 05:17:19;;;;;;;30.70;11.70;;;;;;;23.21;90.92;98649.03;5118813;28;20049;-95
2023/07/19 05:19:46;;;;;;;25.67;11.48;;;;;;;23.69;86.01;98663.13;5119148;28;20548;-95
2023/07/19 05:22:13;;;;;;;34.95;11.40;;;;;;;23.78;79.09;98634.38;5120279;28;20043;-95
2023/07/19 05:24:39;;;;;;;28.92;10.50;;;;;;;24.14;74.38;98632.28;5120464;28;20027;-94
2023/07/19 05:27:06;;;;;;;27.92;10.35;;;;;;;24.46;70.29;98651.22;5120835;28;20139;-94
2023/07/19 05:29:31;;;;;;;34.47;12.02;;;;;;;24.46;69.52;98629.47;5120804;28;20388;-95
2023/07/19 05:31:57;;;;;;;31.08;12.07;;;;;;;24.74;67.78;98635.25;5119993;28;20039;-94
2023/07/19 05:34:25;;;;;;;30.13;11.73;;;;;;;24.80;67.50;98624.72;5120580;28;20494;-94
2023/07/19 05:36:51;;;;;;;24.88;10.95;;;;;;;24.93;66.13;98634.50;5120703;28;20071;-94
2023/07/19 05:39:17;;;;;;;28.38;10.57;;;;;;;24.89;65.13;98611.31;5120154;28;20074;-95
2023/07/19 05:41:43;;;;;;;29.92;12.10;;;;;;;25.04;64.85;98625.41;5120062;28;20043;-95
2023/07/19 05:44:09;;;;;;;31.20;11.15;;;;;;;25.27;64.46;98642.44;5120095;28;20484;-96
2023/07/19 05:46:36;;;;;;;29.92;11.63;;;;;;;25.29;64.05;98640.44;5120575;28;20088;-95
2023/07/19 05:49:02;;;;;;;25.75;10.73;;;;;;;25.25;64.23;98623.50;5120143;28;20138;-96
2023/07/19 05:51:30;;;;;;;33.28;10.85;;;;;;;25.54;63.77;98641.78;5120500;28;20036;-96
2023/07/19 05:53:56;;;;;;;30.38;10.95;;;;;;;25.57;62.71;98622.47;5120256;28;20038;-95
2023/07/19 05:56:22;;;;;;;27.83;10.80;;;;;;;25.81;61.89;98632.97;5122476;28;20412;-95
2023/07/19 05:58:49;;;;;;;33.75;11.05;;;;;;;25.90;62.18;98623.97;5121754;28;20084;-94
2023/07/19 06:01:17;;;;;;;22.93;10.40;;;;;;;25.99;61.51;98628.56;5121378;28;20027;-96
2023/07/19 06:03:43;;;;;;;37.33;13.20;;;;;;;26.07;61.70;98622.41;5124311;27;20126;-95
2023/07/19 06:06:09;;;;;;;29.77;10.82;;;;;;;26.33;60.61;98627.28;5120881;28;20464;-94
2023/07/19 06:08:37;;;;;;;36.45;11.82;;;;;;;26.46;59.90;98621.47;5121490;27;20043;-95
2023/07/19 06:11:03;;;;;;;27.17;10.80;;;;;;;26.48;59.42;98614.00;5127707;27;20035;-95
2023/07/19 06:13:29;;;;;;;30.60;11.27;;;;;;;26.57;58.74;98621.38;5126443;27;20039;-95
2023/07/19 06:15:56;;;;;;;31.08;10.40;;;;;;;26.51;58.82;98636.41;5126526;27;20466;-95
2023/07/19 06:18:22;;;;;;;24.58;10.70;;;;;;;26.53;60.05;98647.19;5126599;27;20107;-94
2023/07/19 06:20:49;;;;;;;24.65;10.38;;;;;;;26.63;59.62;98624.38;5128781;27;20500;-95
2023/07/19 06:23:16;;;;;;;;;;;;;;;26.86;59.07;98655.91;5144654;27;20039;-94
2023/07/19 06:25:46;;;;;;;26.95;10.55;;;;;;;26.95;59.36;98647.66;5125931;27;19964;-95
2023/07/19 06:28:11;;;;;;;26.20;10.48;;;;;;;26.91;58.93;98635.31;5124560;27;20047;-95
2023/07/19 06:30:37;;;;;;;29.55;10.23;;;;;;;26.99;58.26;98642.78;5124049;27;20111;-94
2023/07/19 06:33:03;;;;;;;29.05;10.52;;;;;;;26.86;58.45;98629.47;5123510;27;20039;-95
2023/07/19 06:35:29;;;;;;;26.30;10.70;;;;;;;26.98;58.56;98639.19;5125003;27;20114;-95
2023/07/19 06:38:05;;;;;;;33.55;11.80;;;;;;;27.11;58.91;98644.34;5124394;27;20042;-95
2023/07/19 06:40:31;;;;;;;30.08;10.85;;;;;;;27.19;58.16;98636.22;5123618;27;20051;-95
2023/07/19 06:42:58;;;;;;;28.17;11.02;;;;;;;27.24;58.93;98630.38;5122790;27;20039;-95
2023/07/19 06:45:24;;;;;;;26.88;11.07;;;;;;;27.47;58.36;98639.00;5121819;27;20050;-95
2023/07/19 06:47:50;;;;;;;32.90;11.05;;;;;;;27.56;57.56;98629.03;5122768;27;20047;-96
2023/07/19 06:50:17;;;;;;;26.67;11.20;;;;;;;27.63;57.57;98625.56;5124060;27;20100;-96
2023/07/19 06:52:43;;;;;;;26.05;11.40;;;;;;;27.83;56.94;98633.63;5122800;27;20043;-96
2023/07/19 06:55:09;;;;;;;23.02;9.98;;;;;;;27.86;56.77;98644.25;5123179;27;20515;-96
2023/07/19 06:57:35;;;;;;;32.08;10.43;;;;;;;27.92;56.48;98643.63;5122789;27;20393;-94
2023/07/19 07:00:05;;;;;;;27.90;11.30;;;;;;;28.00;57.23;98641.00;5122440;27;20160;-94
2023/07/19 07:02:31;;;;;;;29.38;10.30;;;;;;;28.14;56.73;98644.19;5122890;27;20039;-94
2023/07/19 07:04:57;;;;;;;25.75;10.75;;;;;;;28.15;57.37;98629.50;5122295;27;20066;-95
2023/07/19 07:07:24;;;;;;;31.33;12.48;;;;;;;28.19;56.16;98639.09;5122028;27;20134;-94
2023/07/19 07:09:50;;;;;;;29.27;10.20;;;;;;;28.35;54.58;98636.53;5122152;27;20042;-94
2023/07/19 07:12:16;;;;;;;27.42;10.65;;;;;;;28.41;55.88;98637.75;5121474;27;20043;-96
2023/07/19 07:14:42;;;;;;;26.50;10.98;;;;;;;28.43;55.44;98633.88;5123448;27;20039;-95
2023/07/19 07:17:09;;;;;;;27.52;10.73;;;;;;;28.42;55.09;98625.81;5122823;27;20457;-95
2023/07/19 07:19:35;;;;;;;25.48;9.95;;;;;;;28.62;55.08;98637.44;5121622;27;20023;-95
2023/07/19 07:22:01;;;;;;;25.23;9.80;;;;;;;28.83;55.08;98629.72;5121363;27;20568;-93
2023/07/19 07:24:27;;;;;;;25.08;9.77;;;;;;;29.11;54.30;98635.06;5120056;27;20078;-94
2023/07/19 07:26:53;;;;;;;28.77;10.18;;;;;;;29.13;54.68;98633.03;5120391;27;20047;-95
2023/07/19 07:29:19;;;;;;;25.50;9.70;;;;;;;29.14;53.86;98615.56;5122493;27;20134;-95
2023/07/19 07:31:44;;;;;;;23.73;10.07;;;;;;;29.26;52.76;98624.34;5121634;27;20043;-95
2023/07/19 07:34:12;;;;;;;29.42;10.15;;;;;;;29.45;53.39;98628.69;5123221;27;20068;-96
2023/07/19 07:36:38;;;;;;;25.00;10.37;;;;;;;29.42;52.48;98618.06;5122137;27;20039;-94
2023/07/19 07:39:05;;;;;;;27.80;10.93;;;;;;;29.37;52.76;98606.78;5123568;27;20045;-95
2023/07/19 07:41:31;;;;;;;26.73;11.55;;;;;;;29.39;52.78;98619.28;5122015;27;20509;-96
2023/07/19 07:43:57;;;;;;;28.85;11.50;;;;;;;29.44;52.84;98616.03;5121867;27;20048;-94
2023/07/19 07:46:24;;;;;;;31.88;10.80;;;;;;;29.66;51.44;98629.09;5125241;27;20051;-94
2023/07/19 07:48:50;;;;;;;24.23;10.18;;;;;;;29.78;51.71;98628.84;5122465;27;20031;-95
2023/07/19 07:51:17;;;;;;;28.05;11.23;;;;;;;29.78;50.39;98623.38;5122136;27;20092;-95
2023/07/19 07:53:44;;;;;;;30.33;10.83;;;;;;;29.80;51.90;98613.94;5122099;27;20046;-95
2023/07/19 07:56:09;;;;;;;26.58;11.05;;;;;;;29.58;50.72;98622.75;5122556;27;20031;-95
2023/07/19 07:58:35;;;;;;;34.67;12.05;;;;;;;29.31;51.11;98616.50;5123382;27;20027;-96
2023/07/19 08:01:01;;;;;;;28.05;11.30;;;;;;;29.37;51.33;98629.53;5120844;27;20523;-94
2023/07/19 08:03:27;;;;;;;27.98;10.95;;;;;;;29.54;51.56;98611.28;5123394;27;20047;-95
2023/07/19 08:05:54;;;;;;;30.65;11.35;;;;;;;29.77;50.07;98624.38;5120749;27;20042;-95
2023/07/19 08:08:21;;;;;;;24.77;10.63;;;;;;;29.82;48.14;98602.78;5122982;27;20065;-95
2023/07/19 08:10:47;;;;;;;22.30;9.50;;;;;;;29.92;45.78;98619.94;5122805;27;20039;-95
2023/07/19 08:13:13;;;;;;;30.40;10.07;;;;;;;29.93;46.69;98609.84;5123065;27;20103;-95
2023/07/19 08:15:39;;;;;;;24.95;10.50;;;;;;;30.21;46.59;98616.75;5122375;27;20039;-96
2023/07/19 08:18:05;;;;;;;25.35;9.77;;;;;;;30.15;46.71;98591.88;5122376;27;20043;-96
2023/07/19 08:20:30;;;;;;;26.65;10.25;;;;;;;30.48;46.64;98599.09;5121890;27;20133;-95
2023/07/19 08:22:56;;;;;;;27.13;10.93;;;;;;;30.63;45.13;98577.28;5123159;27;20047;-96
2023/07/19 08:25:24;;;;;;;25.00;9.45;;;;;;;30.84;46.10;98592.34;5122142;27;20407;-96
2023/07/19 08:27:50;;;;;;;28.30;9.50;;;;;;;31.05;44.27;98594.53;5124508;27;20043;-96
2023/07/19 08:30:16;;;;;;;19.55;10.38;;;;;;;31.27;45.41;98602.03;5122185;27;20039;-96
2023/07/19 08:32:43;;;;;;;22.73;10.10;;;;;;;31.06;44.17;98586.13;5123247;27;20081;-95
2023/07/19 08:35:09;;;;;;;26.33;10.53;;;;;;;31.40;43.90;98597.84;5122376;27;20082;-95
2023/07/19 08:37:35;;;;;;;22.08;10.05;;;;;;;31.44;43.11;98583.59;5123032;27;20043;-95
2023/07/19 08:40:01;;;;;;;28.88;10.43;;;;;;;31.44;43.87;98585.50;5123699;27;20565;-96
2023/07/19 08:42:28;;;;;;;26.20;10.10;;;;;;;31.63;44.61;98571.28;5123467;27;20437;-95
2023/07/19 08:44:54;;;;;;;26.57;9.73;;;;;;;31.57;43.79;98576.66;5124340;28;20051;-96
2023/07/19 08:47:20;;;;;;;25.15;10.82;;;;;;;30.98;45.13;98577.06;5123690;28;20050;-94
2023/07/19 08:49:48;;;;;;;28.00;10.73;;;;;;;30.97;45.25;98558.88;5123050;27;20039;-95
2023/07/19 08:52:15;;;;;;;30.00;9.75;;;;;;;31.54;44.91;98574.28;5120813;28;20047;-95
2023/07/19 08:54:41;;;;;;;29.42;10.88;;;;;;;31.55;43.62;98556.75;5121156;28;20539;-95
2023/07/19 08:57:07;;;;;;;23.25;10.05;;;;;;;31.60;43.49;98555.19;5122748;28;20057;-96
2023/07/19 08:59:35;;;;;;;28.35;10.15;;;;;;;31.83;43.26;98573.56;5123481;28;20043;-96
2023/07/19 09:02:02;;;;;;;25.30;9.73;;;;;;;31.76;43.92;98569.84;5122361;28;20042;-96
2023/07/19 09:04:28;;;;;;;18.73;9.93;;;;;;;32.12;43.86;98564.63;5121954;28;20126;-95
2023/07/19 09:06:54;;;;;;;21.00;9.35;;;;;;;32.41;42.89;98565.75;5122293;28;20039;-95
2023/07/19 09:09:19;;;;;;;22.67;10.20;;;;;;;32.46;43.49;98568.78;5123529;27;20031;-96
2023/07/19 09:11:46;;;;;;;28.33;10.35;;;;;;;31.97;45.00;98553.53;5122950;27;20072;-96
2023/07/19 09:14:12;;;;;;;25.08;10.52;;;;;;;32.26;45.14;98544.53;5120787;28;20495;-96
2023/07/19 09:16:40;;;;;;;30.15;10.20;;;;;;;32.31;43.49;98546.75;5122985;28;20046;-96
2023/07/19 09:19:08;;;;;;;36.38;11.40;;;;;;;32.59;43.85;98555.28;5126019;27;20023;-96
2023/07/19 09:21:37;;;;;;;35.72;11.20;;;;;;;32.64;43.16;98538.19;5122626;27;20046;-94
2023/07/19 09:24:06;;;;;;;32.60;10.93;;;;;;;32.67;43.09;98533.16;5125957;27;20047;-96
2023/07/19 09:26:48;;;;;;;25.48;11.32;;;;;;;32.61;42.80;98558.69;5124655;28;20039;-95
2023/07/19 09:29:14;;;;;;;24.85;10.15;;;;;;;32.46;43.03;98542.13;5125352;28;20065;-94
2023/07/19 09:31:57;;;;;;;29.92;10.98;;;;;;;32.27;44.47;98523.38;5122786;28;20137;-95
2023/07/19 09:34:25;;;;;;;24.05;10.23;;;;;;;32.76;44.22;98538.59;5118525;27;20555;-94
2023/07/19 09:36:53;;;;;;;29.90;11.30;;;;;;;33.00;43.86;98509.88;5121059;28;20051;-95
2023/07/19 09:39:20;;;;;;;30.60;11.43;;;;;;;33.03;43.21;98512.25;5122274;28;20480;-96
2023/07/19 09:41:46;;;;;;;23.30;10.55;;;;;;;33.27;42.15;98514.72;5123045;28;20047;-95
2023/07/19 09:44:16;;;;;;;20.67;9.60;;;;;;;33.28;42.25;98510.06;5125272;27;20050;-95
2023/07/19 09:46:44;;;;;;;21.77;10.02;;;;;;;33.44;41.99;98492.44;5125088;27;20043;-95
2023/07/19 09:49:12;;;;;;;23.60;10.07;;;;;;;33.74;42.30;98493.22;5125123;27;20040;-96
2023/07/19 09:51:40;;;;;;;22.83;10.60;;;;;;;33.85;42.07;98502.84;5125592;27;20279;-95
2023/07/19 09:54:08;;;;;;;19.45;10.00;;;;;;;33.88;42.31;98485.94;5126686;27;20426;-96
2023/07/19 09:56:34;;;;;;;24.67;10.57;;;;;;;34.12;41.52;98506.75;5125448;27;20039;-95
2023/07/19 09:59:01;;;;;;;25.67;10.32;;;;;;;34.15;39.91;98500.81;5124528;27;20027;-95
2023/07/19 10:01:27;;;;;;;23.05;10.98;;;;;;;34.09;40.98;98521.78;5127828;27;20040;-95
2023/07/19 10:03:53;;;;;;;21.92;10.32;;;;;;;33.68;41.08;98496.75;5124797;27;20043;-95
2023/07/19 10:06:28;;;;;;;25.90;10.73;;;;;;;33.99;41.57;98490.06;5126976;27;20597;-95
2023/07/19 10:09:31;;;;;;;23.95;9.77;;;;;;;34.11;40.61;98489.34;5126718;27;20061;-95
2023/07/19 10:11:59;;;;;;;25.85;9.88;;;;;;;33.97;40.81;98496.63;5127343;27;20050;-95
2023/07/19 10:14:27;;;;;;;;;;;;;;;33.83;40.48;98485.66;5128806;27;20043;-95
2023/07/19 10:16:57;;;;;;;26.25;10.23;;;;;;;33.85;41.15;98483.56;5126372;27;20021;-96
2023/07/19 10:19:24;;;;;;;25.55;10.18;;;;;;;34.08;41.09;98458.50;5127534;27;20054;-95
2023/07/19 10:22:07;;;;;;;23.33;10.38;;;;;;;34.23;40.81;98464.81;5125940;27;20035;-95
2023/07/19 10:24:35;;;;;;;21.63;9.90;;;;;;;34.41;40.91;98467.06;5125751;27;20070;-94
2023/07/19 10:27:03;;;;;;;27.42;9.82;;;;;;;34.63;40.92;98456.81;5127612;27;20046;-95
2023/07/19 10:29:38;;;;;;;22.70;9.48;;;;;;;34.83;40.26;98456.06;5129049;27;20039;-94
2023/07/19 10:32:05;;;;;;;17.23;9.15;;;;;;;34.81;38.31;98447.13;5127256;27;20126;-95
2023/07/19 10:34:32;;;;;;;24.90;10.27;;;;;;;34.21;37.68;98455.03;5126439;27;20031;-96
2023/07/19 10:37:02;;;;;;;16.50;8.43;;;;;;;34.55;37.76;98456.97;5126548;27;20027;-94
2023/07/19 10:39:30;;;;;;;17.38;8.85;;;;;;;34.78;36.91;98448.38;5126739;27;20055;-95
2023/07/19 10:41:56;;;;;;;21.27;8.57;;;;;;;34.48;34.82;98443.13;5128076;27;20035;-95
2023/07/19 10:44:22;;;;;;;19.38;8.30;;;;;;;34.71;35.07;98436.47;5125967;27;20093;-95
2023/07/19 10:46:48;;;;;;;20.90;9.02;;;;;;;34.69;35.32;98435.81;5126979;27;20067;-96
2023/07/19 10:49:16;;;;;;;22.10;8.27;;;;;;;34.88;35.87;98435.06;5125014;27;20043;-95
2023/07/19 10:51:52;;;;;;;21.10;8.70;;;;;;;34.86;35.37;98414.22;5123080;27;20069;-95
2023/07/19 10:54:17;;;;;;;21.35;8.02;;;;;;;34.86;34.54;98422.50;5124910;27;20035;-95
2023/07/19 10:56:47;;;;;;;22.55;8.95;;;;;;;34.91;34.92;98411.69;5111144;28;20046;-95
2023/07/19 10:59:12;;;;;;;20.70;8.18;;;;;;;35.00;34.44;98407.66;5104813;28;20044;-95
2023/07/19 11:01:38;;;;;;;17.50;8.20;;;;;;;35.02;34.12;98402.78;5139351;27;20046;-95
2023/07/19 11:04:05;;;;;;;23.05;7.78;;;;;;;35.30;32.68;98416.50;5141854;27;20040;-95
2023/07/19 11:06:32;;;;;;;18.75;7.82;;;;;;;35.43;31.79;98412.91;5102767;28;20043;-96
2023/07/19 11:09:03;;;;;;;20.73;7.10;;;;;;;35.59;30.97;98415.28;5107622;28;20107;-95
2023/07/19 11:11:29;;;;;;;21.13;6.90;;;;;;;35.44;32.79;98395.28;5140180;27;20039;-96
2023/07/19 11:13:56;;;;;;;22.42;7.80;;;;;;;35.46;30.12;98411.63;5105510;28;20054;-95
2023/07/19 11:16:26;;;;;;;19.60;7.63;;;;;;;35.63;29.03;98410.19;5138461;27;20040;-94
2023/07/19 11:18:53;;;;;;;19.80;6.20;;;;;;;35.63;29.02;98385.31;5104852;28;20036;-96
2023/07/19 11:21:24;;;;;;;;;;;;;;;35.87;27.59;98405.97;5104980;28;20040;-96
2023/07/19 11:23:52;;;;;;;18.63;6.85;;;;;;;35.86;28.26;98382.13;5104431;28;19973;-95
2023/07/19 11:26:18;;;;;;;16.67;5.82;;;;;;;35.97;28.90;98372.31;5141830;27;20030;-96
2023/07/19 11:28:46;;;;;;;22.02;7.15;;;;;;;36.13;26.84;98379.34;5148184;27;20035;-96
2023/07/19 11:31:32;;;;;;;21.83;7.07;;;;;;;35.66;27.88;98357.25;5127370;27;20066;-95